sensor_id;sensor_type;location;lat;lon;timestamp;temperature;humidity
55008;DHT22;40902;45.116;21.296;2023-11-19T00:00:17;128.00;2252.80
55008;DHT22;40902;45.116;21.296;2023-11-19T00:02:43;128.20;2252.80
55008;DHT22;40902;45.116;21.296;2023-11-19T00:05:10;128.00;2252.80
55008;DHT22;40902;45.116;21.296;2023-11-19T00:07:37;128.00;2252.80
55008;DHT22;40902;45.116;21.296;2023-11-19T00:10:08;103.30;2227.20
55008;DHT22;40902;45.116;21.296;2023-11-19T00:12:36;103.30;2227.20
55008;DHT22;40902;45.116;21.296;2023-11-19T00:15:02;103.20;2227.20
55008;DHT22;40902;45.116;21.296;2023-11-19T00:17:28;103.20;2227.20
55008;DHT22;40902;45.116;21.296;2023-11-19T00:19:53;103.30;2227.20
55008;DHT22;40902;45.116;21.296;2023-11-19T00:22:19;103.30;2227.20
55008;DHT22;40902;45.116;21.296;2023-11-19T00:24:47;103.20;2227.20
55008;DHT22;40902;45.116;21.296;2023-11-19T00:27:12;103.10;2227.20
55008;DHT22;40902;45.116;21.296;2023-11-19T00:29:38;102.90;2227.20
55008;DHT22;40902;45.116;21.296;2023-11-19T00:32:04;102.90;2227.20
55008;DHT22;40902;45.116;21.296;2023-11-19T00:34:31;102.90;2227.20
55008;DHT22;40902;45.116;21.296;2023-11-19T00:36:56;102.90;2227.20
55008;DHT22;40902;45.116;21.296;2023-11-19T00:39:22;102.80;2227.20
55008;DHT22;40902;45.116;21.296;2023-11-19T00:41:48;102.60;2227.20
55008;DHT22;40902;45.116;21.296;2023-11-19T00:44:13;102.60;2227.20
55008;DHT22;40902;45.116;21.296;2023-11-19T00:46:39;102.50;2227.20
55008;DHT22;40902;45.116;21.296;2023-11-19T00:49:05;102.50;2227.20
55008;DHT22;40902;45.116;21.296;2023-11-19T00:51:31;102.60;2227.20
55008;DHT22;40902;45.116;21.296;2023-11-19T00:53:57;102.60;2227.20
55008;DHT22;40902;45.116;21.296;2023-11-19T00:56:23;102.70;2227.20
55008;DHT22;40902;45.116;21.296;2023-11-19T00:58:49;102.80;2227.20
55008;DHT22;40902;45.116;21.296;2023-11-19T01:01:15;102.80;2227.20
55008;DHT22;40902;45.116;21.296;2023-11-19T01:03:41;102.80;2227.20
55008;DHT22;40902;45.116;21.296;2023-11-19T01:06:07;102.70;2227.20
55008;DHT22;40902;45.116;21.296;2023-11-19T01:08:33;102.50;2227.20
55008;DHT22;40902;45.116;21.296;2023-11-19T01:11:01;102.50;2227.20
55008;DHT22;40902;45.116;21.296;2023-11-19T01:13:27;102.60;2227.20
55008;DHT22;40902;45.116;21.296;2023-11-19T01:15:53;102.60;2227.20
55008;DHT22;40902;45.116;21.296;2023-11-19T01:18:21;102.70;2227.20
55008;DHT22;40902;45.116;21.296;2023-11-19T01:20:47;102.70;2227.20
55008;DHT22;40902;45.116;21.296;2023-11-19T01:23:13;102.60;2227.20
55008;DHT22;40902;45.116;21.296;2023-11-19T01:25:39;102.70;2227.20
55008;DHT22;40902;45.116;21.296;2023-11-19T01:28:04;102.50;2227.20
55008;DHT22;40902;45.116;21.296;2023-11-19T01:30:30;102.40;2227.20
55008;DHT22;40902;45.116;21.296;2023-11-19T01:32:56;102.40;2227.20
55008;DHT22;40902;45.116;21.296;2023-11-19T01:35:22;102.40;2227.20
55008;DHT22;40902;45.116;21.296;2023-11-19T01:37:48;102.40;2227.20
55008;DHT22;40902;45.116;21.296;2023-11-19T01:40:20;102.40;2227.20
55008;DHT22;40902;45.116;21.296;2023-11-19T01:42:46;77.60;2227.20
55008;DHT22;40902;45.116;21.296;2023-11-19T01:45:22;77.50;2227.20
55008;DHT22;40902;45.116;21.296;2023-11-19T01:47:48;77.50;2227.20
55008;DHT22;40902;45.116;21.296;2023-11-19T01:50:14;77.60;2227.20
55008;DHT22;40902;45.116;21.296;2023-11-19T01:52:40;77.60;2227.20
55008;DHT22;40902;45.116;21.296;2023-11-19T01:55:07;77.70;2227.20
55008;DHT22;40902;45.116;21.296;2023-11-19T01:57:36;102.40;2227.20
55008;DHT22;40902;45.116;21.296;2023-11-19T02:00:07;102.40;2227.20
55008;DHT22;40902;45.116;21.296;2023-11-19T02:02:37;77.70;2227.20
55008;DHT22;40902;45.116;21.296;2023-11-19T02:05:03;102.50;2227.20
55008;DHT22;40902;45.116;21.296;2023-11-19T02:07:29;102.60;2227.20
55008;DHT22;40902;45.116;21.296;2023-11-19T02:09:55;102.70;2227.20
55008;DHT22;40902;45.116;21.296;2023-11-19T02:12:20;102.60;2227.20
55008;DHT22;40902;45.116;21.296;2023-11-19T02:14:46;102.60;2227.20
55008;DHT22;40902;45.116;21.296;2023-11-19T02:17:31;102.70;2227.20
55008;DHT22;40902;45.116;21.296;2023-11-19T02:19:57;102.70;2227.20
55008;DHT22;40902;45.116;21.296;2023-11-19T02:22:24;102.60;2227.20
55008;DHT22;40902;45.116;21.296;2023-11-19T02:24:54;102.50;2227.20
55008;DHT22;40902;45.116;21.296;2023-11-19T02:27:53;102.40;2227.20
55008;DHT22;40902;45.116;21.296;2023-11-19T02:30:21;77.70;2227.20
55008;DHT22;40902;45.116;21.296;2023-11-19T02:33:00;77.50;2227.20
55008;DHT22;40902;45.116;21.296;2023-11-19T02:35:31;77.60;2227.20
55008;DHT22;40902;45.116;21.296;2023-11-19T02:37:57;77.70;2227.20
55008;DHT22;40902;45.116;21.296;2023-11-19T02:40:23;77.70;2227.20
55008;DHT22;40902;45.116;21.296;2023-11-19T02:42:50;77.70;2227.20
55008;DHT22;40902;45.116;21.296;2023-11-19T02:45:15;77.50;2227.20
55008;DHT22;40902;45.116;21.296;2023-11-19T02:47:42;77.50;2227.20
55008;DHT22;40902;45.116;21.296;2023-11-19T02:50:09;77.30;2227.20
55008;DHT22;40902;45.116;21.296;2023-11-19T02:52:43;77.20;2227.20
55008;DHT22;40902;45.116;21.296;2023-11-19T02:55:13;77.10;2227.20
55008;DHT22;40902;45.116;21.296;2023-11-19T02:57:40;77.20;2227.20
55008;DHT22;40902;45.116;21.296;2023-11-19T03:00:15;77.20;2227.20
55008;DHT22;40902;45.116;21.296;2023-11-19T03:02:41;77.20;2227.20
55008;DHT22;40902;45.116;21.296;2023-11-19T03:05:19;77.20;2227.20
55008;DHT22;40902;45.116;21.296;2023-11-19T03:07:45;77.20;2227.20
55008;DHT22;40902;45.116;21.296;2023-11-19T03:10:11;77.30;2227.20
55008;DHT22;40902;45.116;21.296;2023-11-19T03:12:40;77.40;2227.20
55008;DHT22;40902;45.116;21.296;2023-11-19T03:15:07;77.40;2227.20
55008;DHT22;40902;45.116;21.296;2023-11-19T03:17:36;77.30;2227.20
55008;DHT22;40902;45.116;21.296;2023-11-19T03:20:04;77.30;2227.20
55008;DHT22;40902;45.116;21.296;2023-11-19T03:22:32;77.20;2227.20
55008;DHT22;40902;45.116;21.296;2023-11-19T03:24:59;77.20;2227.20
55008;DHT22;40902;45.116;21.296;2023-11-19T03:27:25;77.20;2227.20
55008;DHT22;40902;45.116;21.296;2023-11-19T03:29:51;77.20;2227.20
55008;DHT22;40902;45.116;21.296;2023-11-19T03:32:16;77.10;2227.20
55008;DHT22;40902;45.116;21.296;2023-11-19T03:34:42;77.10;2227.20
55008;DHT22;40902;45.116;21.296;2023-11-19T03:37:08;77.10;2227.20
55008;DHT22;40902;45.116;21.296;2023-11-19T03:39:34;77.00;2227.20
55008;DHT22;40902;45.116;21.296;2023-11-19T03:42:00;77.10;2227.20
55008;DHT22;40902;45.116;21.296;2023-11-19T03:44:27;77.20;2227.20
55008;DHT22;40902;45.116;21.296;2023-11-19T03:46:52;77.20;2227.20
55008;DHT22;40902;45.116;21.296;2023-11-19T03:49:18;77.10;2227.20
55008;DHT22;40902;45.116;21.296;2023-11-19T03:51:44;77.20;2227.20
55008;DHT22;40902;45.116;21.296;2023-11-19T03:54:09;77.10;2227.20
55008;DHT22;40902;45.116;21.296;2023-11-19T03:56:37;77.00;2227.20
55008;DHT22;40902;45.116;21.296;2023-11-19T03:59:03;77.00;2227.20
55008;DHT22;40902;45.116;21.296;2023-11-19T04:01:28;76.90;2227.20
55008;DHT22;40902;45.116;21.296;2023-11-19T04:03:54;77.00;2227.20
55008;DHT22;40902;45.116;21.296;2023-11-19T04:06:21;77.10;2227.20
55008;DHT22;40902;45.116;21.296;2023-11-19T04:08:47;77.20;2227.20
55008;DHT22;40902;45.116;21.296;2023-11-19T04:11:13;77.30;2227.20
55008;DHT22;40902;45.116;21.296;2023-11-19T04:13:38;77.40;2227.20
55008;DHT22;40902;45.116;21.296;2023-11-19T04:16:04;77.50;2227.20
55008;DHT22;40902;45.116;21.296;2023-11-19T04:18:30;77.50;2227.20
55008;DHT22;40902;45.116;21.296;2023-11-19T04:20:57;77.50;2227.20
55008;DHT22;40902;45.116;21.296;2023-11-19T04:23:23;77.60;2227.20
55008;DHT22;40902;45.116;21.296;2023-11-19T04:25:50;77.60;2227.20
55008;DHT22;40902;45.116;21.296;2023-11-19T04:28:16;77.60;2227.20
55008;DHT22;40902;45.116;21.296;2023-11-19T04:30:41;77.60;2227.20
55008;DHT22;40902;45.116;21.296;2023-11-19T04:33:07;77.60;2227.20
55008;DHT22;40902;45.116;21.296;2023-11-19T04:35:33;77.70;2227.20
55008;DHT22;40902;45.116;21.296;2023-11-19T04:37:58;77.70;2227.20
55008;DHT22;40902;45.116;21.296;2023-11-19T04:40:24;102.40;2227.20
55008;DHT22;40902;45.116;21.296;2023-11-19T04:42:50;77.60;2227.20
55008;DHT22;40902;45.116;21.296;2023-11-19T04:45:16;77.60;2227.20
55008;DHT22;40902;45.116;21.296;2023-11-19T04:47:42;77.60;2227.20
55008;DHT22;40902;45.116;21.296;2023-11-19T04:50:08;77.60;2227.20
55008;DHT22;40902;45.116;21.296;2023-11-19T04:52:38;77.60;2227.20
55008;DHT22;40902;45.116;21.296;2023-11-19T04:55:06;77.60;2227.20
55008;DHT22;40902;45.116;21.296;2023-11-19T04:57:32;77.60;2227.20
55008;DHT22;40902;45.116;21.296;2023-11-19T04:59:58;77.70;2227.20
55008;DHT22;40902;45.116;21.296;2023-11-19T05:02:24;102.40;2227.20
55008;DHT22;40902;45.116;21.296;2023-11-19T05:04:50;102.60;2227.20
55008;DHT22;40902;45.116;21.296;2023-11-19T05:07:15;102.60;2227.20
55008;DHT22;40902;45.116;21.296;2023-11-19T05:09:41;102.70;2227.20
55008;DHT22;40902;45.116;21.296;2023-11-19T05:12:08;102.70;2227.20
55008;DHT22;40902;45.116;21.296;2023-11-19T05:14:37;102.80;2227.20
55008;DHT22;40902;45.116;21.296;2023-11-19T05:17:03;102.80;2227.20
55008;DHT22;40902;45.116;21.296;2023-11-19T05:19:29;102.70;2227.20
55008;DHT22;40902;45.116;21.296;2023-11-19T05:21:55;102.50;2227.20
55008;DHT22;40902;45.116;21.296;2023-11-19T05:24:21;102.40;2227.20
55008;DHT22;40902;45.116;21.296;2023-11-19T05:26:46;102.40;2227.20
55008;DHT22;40902;45.116;21.296;2023-11-19T05:29:13;102.50;2227.20
55008;DHT22;40902;45.116;21.296;2023-11-19T05:31:38;102.50;2227.20
55008;DHT22;40902;45.116;21.296;2023-11-19T05:34:04;102.50;2227.20
55008;DHT22;40902;45.116;21.296;2023-11-19T05:36:30;102.60;2227.20
55008;DHT22;40902;45.116;21.296;2023-11-19T05:38:56;102.50;2227.20
55008;DHT22;40902;45.116;21.296;2023-11-19T05:41:21;102.50;2227.20
55008;DHT22;40902;45.116;21.296;2023-11-19T05:43:47;102.60;2227.20
55008;DHT22;40902;45.116;21.296;2023-11-19T05:46:13;102.50;2227.20
55008;DHT22;40902;45.116;21.296;2023-11-19T05:48:39;102.50;2227.20
55008;DHT22;40902;45.116;21.296;2023-11-19T05:51:05;102.50;2227.20
55008;DHT22;40902;45.116;21.296;2023-11-19T05:53:31;102.60;2227.20
55008;DHT22;40902;45.116;21.296;2023-11-19T05:55:57;102.60;2227.20
55008;DHT22;40902;45.116;21.296;2023-11-19T05:58:27;102.60;2227.20
55008;DHT22;40902;45.116;21.296;2023-11-19T06:00:55;102.60;2227.20
55008;DHT22;40902;45.116;21.296;2023-11-19T06:03:21;102.60;2227.20
55008;DHT22;40902;45.116;21.296;2023-11-19T06:05:48;102.60;2227.20
55008;DHT22;40902;45.116;21.296;2023-11-19T06:08:14;102.60;2227.20
55008;DHT22;40902;45.116;21.296;2023-11-19T06:10:44;102.60;2227.20
55008;DHT22;40902;45.116;21.296;2023-11-19T06:13:12;102.50;2227.20
55008;DHT22;40902;45.116;21.296;2023-11-19T06:15:37;102.60;2227.20
55008;DHT22;40902;45.116;21.296;2023-11-19T06:18:03;102.60;2227.20
55008;DHT22;40902;45.116;21.296;2023-11-19T06:20:33;102.60;2227.20
55008;DHT22;40902;45.116;21.296;2023-11-19T06:22:59;102.70;2227.20
55008;DHT22;40902;45.116;21.296;2023-11-19T06:25:25;102.80;2227.20
55008;DHT22;40902;45.116;21.296;2023-11-19T06:27:52;102.80;2227.20
55008;DHT22;40902;45.116;21.296;2023-11-19T06:30:18;102.90;2227.20
55008;DHT22;40902;45.116;21.296;2023-11-19T06:32:44;102.90;2227.20
55008;DHT22;40902;45.116;21.296;2023-11-19T06:35:10;102.90;2227.20
55008;DHT22;40902;45.116;21.296;2023-11-19T06:37:39;103.00;2227.20
55008;DHT22;40902;45.116;21.296;2023-11-19T06:40:06;103.00;2227.20
55008;DHT22;40902;45.116;21.296;2023-11-19T06:42:32;102.90;2227.20
55008;DHT22;40902;45.116;21.296;2023-11-19T06:44:58;102.90;2227.20
55008;DHT22;40902;45.116;21.296;2023-11-19T06:47:27;102.80;2227.20
55008;DHT22;40902;45.116;21.296;2023-11-19T06:49:53;102.80;2227.20
55008;DHT22;40902;45.116;21.296;2023-11-19T06:52:20;102.80;2227.20
55008;DHT22;40902;45.116;21.296;2023-11-19T06:54:46;102.80;2227.20
55008;DHT22;40902;45.116;21.296;2023-11-19T06:57:12;102.90;2227.20
55008;DHT22;40902;45.116;21.296;2023-11-19T06:59:38;102.80;2227.20
55008;DHT22;40902;45.116;21.296;2023-11-19T07:02:04;102.80;2227.20
55008;DHT22;40902;45.116;21.296;2023-11-19T07:04:31;102.50;2227.20
55008;DHT22;40902;45.116;21.296;2023-11-19T07:06:57;102.60;2227.20
55008;DHT22;40902;45.116;21.296;2023-11-19T07:09:22;102.70;2227.20
55008;DHT22;40902;45.116;21.296;2023-11-19T07:11:49;102.60;2227.20
55008;DHT22;40902;45.116;21.296;2023-11-19T07:14:17;102.70;2227.20
55008;DHT22;40902;45.116;21.296;2023-11-19T07:16:44;102.70;2227.20
55008;DHT22;40902;45.116;21.296;2023-11-19T07:19:09;102.70;2227.20
55008;DHT22;40902;45.116;21.296;2023-11-19T07:21:35;102.70;2227.20
55008;DHT22;40902;45.116;21.296;2023-11-19T07:24:05;102.80;2227.20
55008;DHT22;40902;45.116;21.296;2023-11-19T07:26:31;102.80;2227.20
55008;DHT22;40902;45.116;21.296;2023-11-19T07:28:57;102.80;2227.20
55008;DHT22;40902;45.116;21.296;2023-11-19T07:31:23;102.80;2227.20
55008;DHT22;40902;45.116;21.296;2023-11-19T07:33:49;102.90;2227.20
55008;DHT22;40902;45.116;21.296;2023-11-19T07:36:15;103.10;2227.20
55008;DHT22;40902;45.116;21.296;2023-11-19T07:38:41;103.10;2227.20
55008;DHT22;40902;45.116;21.296;2023-11-19T07:41:08;103.00;2227.20
55008;DHT22;40902;45.116;21.296;2023-11-19T07:43:39;103.20;2227.20
55008;DHT22;40902;45.116;21.296;2023-11-19T07:46:09;128.00;2252.80
55008;DHT22;40902;45.116;21.296;2023-11-19T07:48:35;103.20;2227.20
55008;DHT22;40902;45.116;21.296;2023-11-19T07:51:02;103.20;2227.20
55008;DHT22;40902;45.116;21.296;2023-11-19T07:53:27;103.20;2227.20
55008;DHT22;40902;45.116;21.296;2023-11-19T07:55:53;103.20;2227.20
55008;DHT22;40902;45.116;21.296;2023-11-19T07:58:19;103.10;2227.20
55008;DHT22;40902;45.116;21.296;2023-11-19T08:00:45;103.00;2227.20
55008;DHT22;40902;45.116;21.296;2023-11-19T08:03:10;103.00;2227.20
55008;DHT22;40902;45.116;21.296;2023-11-19T08:05:36;103.00;2227.20
55008;DHT22;40902;45.116;21.296;2023-11-19T08:08:02;103.00;2227.20
55008;DHT22;40902;45.116;21.296;2023-11-19T08:10:28;102.90;2227.20
55008;DHT22;40902;45.116;21.296;2023-11-19T08:12:54;103.10;2227.20
55008;DHT22;40902;45.116;21.296;2023-11-19T08:15:20;103.10;2227.20
55008;DHT22;40902;45.116;21.296;2023-11-19T08:17:45;103.30;2227.20
55008;DHT22;40902;45.116;21.296;2023-11-19T08:20:12;103.30;2227.20
55008;DHT22;40902;45.116;21.296;2023-11-19T08:22:38;128.10;2252.80
55008;DHT22;40902;45.116;21.296;2023-11-19T08:25:05;128.20;2252.80
55008;DHT22;40902;45.116;21.296;2023-11-19T08:27:31;128.30;2252.80
55008;DHT22;40902;45.116;21.296;2023-11-19T08:29:57;128.40;2252.80
55008;DHT22;40902;45.116;21.296;2023-11-19T08:32:24;128.40;2252.80
55008;DHT22;40902;45.116;21.296;2023-11-19T08:34:50;128.50;2252.80
55008;DHT22;40902;45.116;21.296;2023-11-19T08:37:16;128.60;2252.80
55008;DHT22;40902;45.116;21.296;2023-11-19T08:39:43;128.50;2252.80
55008;DHT22;40902;45.116;21.296;2023-11-19T08:42:09;128.50;2252.80
55008;DHT22;40902;45.116;21.296;2023-11-19T08:44:35;128.70;2252.80
55008;DHT22;40902;45.116;21.296;2023-11-19T08:47:00;128.80;2252.80
55008;DHT22;40902;45.116;21.296;2023-11-19T08:49:26;128.80;2252.80
55008;DHT22;40902;45.116;21.296;2023-11-19T08:51:52;153.70;2252.80
55008;DHT22;40902;45.116;21.296;2023-11-19T08:54:18;153.60;2252.80
55008;DHT22;40902;45.116;21.296;2023-11-19T08:56:45;153.80;2252.80
55008;DHT22;40902;45.116;21.296;2023-11-19T08:59:11;154.00;2252.80
55008;DHT22;40902;45.116;21.296;2023-11-19T09:01:37;154.10;2252.80
55008;DHT22;40902;45.116;21.296;2023-11-19T09:04:03;154.20;2252.80
55008;DHT22;40902;45.116;21.296;2023-11-19T09:06:30;154.30;2252.80
55008;DHT22;40902;45.116;21.296;2023-11-19T09:08:55;154.40;2252.80
55008;DHT22;40902;45.116;21.296;2023-11-19T09:11:26;154.20;2252.80
55008;DHT22;40902;45.116;21.296;2023-11-19T09:13:51;154.20;2252.80
55008;DHT22;40902;45.116;21.296;2023-11-19T09:16:17;154.20;2252.80
55008;DHT22;40902;45.116;21.296;2023-11-19T09:18:43;154.30;2252.80
55008;DHT22;40902;45.116;21.296;2023-11-19T09:21:10;154.30;2252.80
55008;DHT22;40902;45.116;21.296;2023-11-19T09:23:36;154.30;2252.80
55008;DHT22;40902;45.116;21.296;2023-11-19T09:26:05;154.40;2252.80
55008;DHT22;40902;45.116;21.296;2023-11-19T09:28:32;179.20;2252.80
55008;DHT22;40902;45.116;21.296;2023-11-19T09:30:57;179.20;2252.80
55008;DHT22;40902;45.116;21.296;2023-11-19T09:33:24;179.30;2252.80
55008;DHT22;40902;45.116;21.296;2023-11-19T09:35:50;179.40;2252.80
55008;DHT22;40902;45.116;21.296;2023-11-19T09:38:16;179.50;2252.80
55008;DHT22;40902;45.116;21.296;2023-11-19T09:40:42;179.50;2252.80
55008;DHT22;40902;45.116;21.296;2023-11-19T09:43:09;179.60;2252.80
55008;DHT22;40902;45.116;21.296;2023-11-19T09:45:50;179.70;2252.80
55008;DHT22;40902;45.116;21.296;2023-11-19T09:48:17;179.70;2252.80
55008;DHT22;40902;45.116;21.296;2023-11-19T09:50:47;179.60;2252.80
55008;DHT22;40902;45.116;21.296;2023-11-19T09:53:14;179.60;2252.80
55008;DHT22;40902;45.116;21.296;2023-11-19T09:55:41;179.60;2252.80
55008;DHT22;40902;45.116;21.296;2023-11-19T09:58:07;179.50;2252.80
55008;DHT22;40902;45.116;21.296;2023-11-19T10:00:34;179.40;2252.80
55008;DHT22;40902;45.116;21.296;2023-11-19T10:03:00;179.20;2252.80
55008;DHT22;40902;45.116;21.296;2023-11-19T10:05:27;179.30;2252.80
55008;DHT22;40902;45.116;21.296;2023-11-19T10:07:53;179.30;2252.80
55008;DHT22;40902;45.116;21.296;2023-11-19T10:10:21;179.40;2252.80
55008;DHT22;40902;45.116;21.296;2023-11-19T10:12:46;179.50;2252.80
55008;DHT22;40902;45.116;21.296;2023-11-19T10:15:22;179.70;2252.80
55008;DHT22;40902;45.116;21.296;2023-11-19T10:17:50;179.80;2252.80
55008;DHT22;40902;45.116;21.296;2023-11-19T10:20:15;179.90;2252.80
55008;DHT22;40902;45.116;21.296;2023-11-19T10:22:41;179.90;2252.80
55008;DHT22;40902;45.116;21.296;2023-11-19T10:25:27;180.00;2252.80
55008;DHT22;40902;45.116;21.296;2023-11-19T10:27:53;180.00;2252.80
55008;DHT22;40902;45.116;21.296;2023-11-19T10:30:27;180.00;2252.80
55008;DHT22;40902;45.116;21.296;2023-11-19T10:33:23;180.10;2252.80
55008;DHT22;40902;45.116;21.296;2023-11-19T10:35:56;180.00;2252.80
55008;DHT22;40902;45.116;21.296;2023-11-19T10:38:23;179.90;2252.80
55008;DHT22;40902;45.116;21.296;2023-11-19T10:40:53;180.00;2252.80
55008;DHT22;40902;45.116;21.296;2023-11-19T10:43:20;204.80;2252.80
55008;DHT22;40902;45.116;21.296;2023-11-19T10:45:50;204.90;2252.80
55008;DHT22;40902;45.116;21.296;2023-11-19T10:48:16;204.90;2252.80
55008;DHT22;40902;45.116;21.296;2023-11-19T10:50:43;205.10;2252.80
55008;DHT22;40902;45.116;21.296;2023-11-19T10:53:11;205.30;2252.80
55008;DHT22;40902;45.116;21.296;2023-11-19T10:55:39;205.40;2252.80
55008;DHT22;40902;45.116;21.296;2023-11-19T11:03:16;230.40;2252.80
55008;DHT22;40902;45.116;21.296;2023-11-19T11:05:42;230.50;2252.80
55008;DHT22;40902;45.116;21.296;2023-11-19T11:08:09;205.70;2252.80
55008;DHT22;40902;45.116;21.296;2023-11-19T11:10:41;205.70;2252.80
55008;DHT22;40902;45.116;21.296;2023-11-19T11:13:07;230.40;2252.80
55008;DHT22;40902;45.116;21.296;2023-11-19T11:15:34;230.40;2252.80
55008;DHT22;40902;45.116;21.296;2023-11-19T11:18:01;230.40;2252.80
55008;DHT22;40902;45.116;21.296;2023-11-19T11:20:32;230.50;2252.80
55008;DHT22;40902;45.116;21.296;2023-11-19T11:32:17;230.50;2252.80
55008;DHT22;40902;45.116;21.296;2023-11-19T11:39:49;205.70;2252.80
55008;DHT22;40902;45.116;21.296;2023-11-19T11:45:00;205.60;2252.80
55008;DHT22;40902;45.116;21.296;2023-11-19T11:47:40;205.60;2252.80
55008;DHT22;40902;45.116;21.296;2023-11-19T11:50:16;230.40;2252.80
55008;DHT22;40902;45.116;21.296;2023-11-19T11:55:34;230.60;2252.80
55008;DHT22;40902;45.116;21.296;2023-11-19T11:58:02;230.60;2252.80
55008;DHT22;40902;45.116;21.296;2023-11-19T12:00:32;230.70;2252.80
55008;DHT22;40902;45.116;21.296;2023-11-19T12:03:02;230.60;2252.80
55008;DHT22;40902;45.116;21.296;2023-11-19T12:05:28;230.50;2252.80
55008;DHT22;40902;45.116;21.296;2023-11-19T12:07:55;230.60;2252.80
55008;DHT22;40902;45.116;21.296;2023-11-19T12:10:24;230.70;2252.80
55008;DHT22;40902;45.116;21.296;2023-11-19T12:12:53;230.60;2252.80
55008;DHT22;40902;45.116;21.296;2023-11-19T12:15:19;230.40;2252.80
55008;DHT22;40902;45.116;21.296;2023-11-19T12:17:50;230.40;2252.80
55008;DHT22;40902;45.116;21.296;2023-11-19T12:20:24;230.40;2252.80
55008;DHT22;40902;45.116;21.296;2023-11-19T12:22:50;230.60;2252.80
55008;DHT22;40902;45.116;21.296;2023-11-19T12:25:17;230.70;2252.80
55008;DHT22;40902;45.116;21.296;2023-11-19T12:27:47;230.80;2252.80
55008;DHT22;40902;45.116;21.296;2023-11-19T12:30:23;230.90;2252.80
55008;DHT22;40902;45.116;21.296;2023-11-19T12:32:52;231.10;2252.80
55008;DHT22;40902;45.116;21.296;2023-11-19T12:35:22;231.10;2252.80
55008;DHT22;40902;45.116;21.296;2023-11-19T12:37:49;231.10;2252.80
55008;DHT22;40902;45.116;21.296;2023-11-19T12:40:17;231.10;2252.80
55008;DHT22;40902;45.116;21.296;2023-11-19T12:42:48;230.90;2252.80
55008;DHT22;40902;45.116;21.296;2023-11-19T12:45:14;230.90;2252.80
55008;DHT22;40902;45.116;21.296;2023-11-19T12:47:42;231.00;2252.80
55008;DHT22;40902;45.116;21.296;2023-11-19T12:50:08;231.00;2252.80
55008;DHT22;40902;45.116;21.296;2023-11-19T12:52:37;231.00;2252.80
55008;DHT22;40902;45.116;21.296;2023-11-19T12:55:25;230.90;2252.80
55008;DHT22;40902;45.116;21.296;2023-11-19T12:57:50;230.80;2252.80
55008;DHT22;40902;45.116;21.296;2023-11-19T13:00:20;230.70;2252.80
55008;DHT22;40902;45.116;21.296;2023-11-19T13:02:48;230.70;2252.80
55008;DHT22;40902;45.116;21.296;2023-11-19T13:05:40;230.60;2252.80
55008;DHT22;40902;45.116;21.296;2023-11-19T13:08:07;230.70;2252.80
55008;DHT22;40902;45.116;21.296;2023-11-19T13:10:50;230.90;2252.80
55008;DHT22;40902;45.116;21.296;2023-11-19T13:13:16;231.00;2252.80
55008;DHT22;40902;45.116;21.296;2023-11-19T13:15:42;231.10;2252.80
55008;DHT22;40902;45.116;21.296;2023-11-19T13:18:10;231.10;2252.80
55008;DHT22;40902;45.116;21.296;2023-11-19T13:20:36;231.10;2252.80
55008;DHT22;40902;45.116;21.296;2023-11-19T13:23:04;231.10;2252.80
55008;DHT22;40902;45.116;21.296;2023-11-19T13:25:31;230.90;2252.80
55008;DHT22;40902;45.116;21.296;2023-11-19T13:28:00;231.00;2252.80
55008;DHT22;40902;45.116;21.296;2023-11-19T13:30:26;230.90;2252.80
55008;DHT22;40902;45.116;21.296;2023-11-19T13:32:52;230.80;2252.80
55008;DHT22;40902;45.116;21.296;2023-11-19T13:35:21;230.70;2252.80
55008;DHT22;40902;45.116;21.296;2023-11-19T13:37:47;230.70;2252.80
55008;DHT22;40902;45.116;21.296;2023-11-19T13:40:13;230.70;2252.80
55008;DHT22;40902;45.116;21.296;2023-11-19T13:42:42;230.80;2252.80
55008;DHT22;40902;45.116;21.296;2023-11-19T13:45:09;230.80;2252.80
55008;DHT22;40902;45.116;21.296;2023-11-19T13:47:41;230.80;2252.80
55008;DHT22;40902;45.116;21.296;2023-11-19T13:50:15;230.90;2252.80
55008;DHT22;40902;45.116;21.296;2023-11-19T13:52:44;230.90;2252.80
55008;DHT22;40902;45.116;21.296;2023-11-19T13:55:14;230.70;2252.80
55008;DHT22;40902;45.116;21.296;2023-11-19T13:57:40;230.60;2252.80
55008;DHT22;40902;45.116;21.296;2023-11-19T14:00:08;230.60;2252.80
55008;DHT22;40902;45.116;21.296;2023-11-19T14:02:45;230.70;2252.80
55008;DHT22;40902;45.116;21.296;2023-11-19T14:05:12;230.60;2252.80
55008;DHT22;40902;45.116;21.296;2023-11-19T14:07:38;230.60;2252.80
55008;DHT22;40902;45.116;21.296;2023-11-19T14:10:05;230.60;2252.80
55008;DHT22;40902;45.116;21.296;2023-11-19T14:12:32;230.60;2252.80
55008;DHT22;40902;45.116;21.296;2023-11-19T14:14:58;230.70;2252.80
55008;DHT22;40902;45.116;21.296;2023-11-19T14:17:25;230.70;2252.80
55008;DHT22;40902;45.116;21.296;2023-11-19T14:19:51;230.60;2252.80
55008;DHT22;40902;45.116;21.296;2023-11-19T14:22:17;230.60;2252.80
55008;DHT22;40902;45.116;21.296;2023-11-19T14:24:43;230.70;2252.80
55008;DHT22;40902;45.116;21.296;2023-11-19T14:27:11;230.70;2252.80
55008;DHT22;40902;45.116;21.296;2023-11-19T14:29:37;230.60;2252.80
55008;DHT22;40902;45.116;21.296;2023-11-19T14:32:03;230.70;2252.80
55008;DHT22;40902;45.116;21.296;2023-11-19T14:34:30;230.60;2252.80
55008;DHT22;40902;45.116;21.296;2023-11-19T14:36:56;230.60;2252.80
55008;DHT22;40902;45.116;21.296;2023-11-19T14:39:22;230.60;2252.80
55008;DHT22;40902;45.116;21.296;2023-11-19T14:41:48;230.50;2252.80
55008;DHT22;40902;45.116;21.296;2023-11-19T14:44:15;230.40;2252.80
55008;DHT22;40902;45.116;21.296;2023-11-19T14:46:40;230.40;2252.80
55008;DHT22;40902;45.116;21.296;2023-11-19T14:49:06;205.70;2252.80
55008;DHT22;40902;45.116;21.296;2023-11-19T14:51:38;205.70;2252.80
55008;DHT22;40902;45.116;21.296;2023-11-19T14:54:04;205.60;2252.80
55008;DHT22;40902;45.116;21.296;2023-11-19T14:56:30;205.50;2252.80
55008;DHT22;40902;45.116;21.296;2023-11-19T14:58:56;205.40;2252.80
55008;DHT22;40902;45.116;21.296;2023-11-19T15:01:21;205.40;2252.80
55008;DHT22;40902;45.116;21.296;2023-11-19T15:03:47;205.40;2252.80